sensor_id;sensor_type;location;lat;lon;timestamp;temperature;humidity
69895;DHT22;57172;52.034;5.090;2022-08-14T00:01:44;23.70;47.90
69895;DHT22;57172;52.034;5.090;2022-08-14T00:04:20;23.70;47.90
69895;DHT22;57172;52.034;5.090;2022-08-14T00:07:09;23.70;48.10
69895;DHT22;57172;52.034;5.090;2022-08-14T00:09:36;23.70;47.90
69895;DHT22;57172;52.034;5.090;2022-08-14T00:12:23;23.70;47.70
69895;DHT22;57172;52.034;5.090;2022-08-14T00:15:17;23.60;47.90
69895;DHT22;57172;52.034;5.090;2022-08-14T00:17:45;23.60;48.10
69895;DHT22;57172;52.034;5.090;2022-08-14T00:20:24;23.60;48.00
69895;DHT22;57172;52.034;5.090;2022-08-14T00:23:01;23.60;47.90
69895;DHT22;57172;52.034;5.090;2022-08-14T00:25:45;23.60;48.20
69895;DHT22;57172;52.034;5.090;2022-08-14T00:28:32;23.50;48.20
69895;DHT22;57172;52.034;5.090;2022-08-14T00:31:03;23.50;48.20
69895;DHT22;57172;52.034;5.090;2022-08-14T00:33:31;23.40;48.10
69895;DHT22;57172;52.034;5.090;2022-08-14T00:36:19;23.40;48.30
69895;DHT22;57172;52.034;5.090;2022-08-14T00:39:06;23.30;48.30
69895;DHT22;57172;52.034;5.090;2022-08-14T00:41:36;23.30;48.50
69895;DHT22;57172;52.034;5.090;2022-08-14T00:44:05;23.30;48.80
69895;DHT22;57172;52.034;5.090;2022-08-14T00:46:35;23.20;48.80
69895;DHT22;57172;52.034;5.090;2022-08-14T00:49:03;23.20;48.90
69895;DHT22;57172;52.034;5.090;2022-08-14T00:51:30;23.10;49.00
69895;DHT22;57172;52.034;5.090;2022-08-14T00:54:05;23.10;48.90
69895;DHT22;57172;52.034;5.090;2022-08-14T00:56:49;23.10;49.10
69895;DHT22;57172;52.034;5.090;2022-08-14T00:59:26;23.00;49.10
69895;DHT22;57172;52.034;5.090;2022-08-14T01:01:59;23.00;49.30
69895;DHT22;57172;52.034;5.090;2022-08-14T01:04:27;23.00;49.30
69895;DHT22;57172;52.034;5.090;2022-08-14T01:07:18;22.90;49.30
69895;DHT22;57172;52.034;5.090;2022-08-14T01:09:55;22.90;49.30
69895;DHT22;57172;52.034;5.090;2022-08-14T01:12:24;22.90;49.50
69895;DHT22;57172;52.034;5.090;2022-08-14T01:15:00;22.80;49.60
69895;DHT22;57172;52.034;5.090;2022-08-14T01:17:30;22.80;49.80
69895;DHT22;57172;52.034;5.090;2022-08-14T01:20:18;22.80;50.00
69895;DHT22;57172;52.034;5.090;2022-08-14T01:23:11;22.70;50.10
69895;DHT22;57172;52.034;5.090;2022-08-14T01:25:43;22.70;50.30
69895;DHT22;57172;52.034;5.090;2022-08-14T01:28:11;22.60;50.40
69895;DHT22;57172;52.034;5.090;2022-08-14T01:30:59;22.60;50.40
69895;DHT22;57172;52.034;5.090;2022-08-14T01:33:28;22.50;50.60
69895;DHT22;57172;52.034;5.090;2022-08-14T01:35:59;22.50;50.90
69895;DHT22;57172;52.034;5.090;2022-08-14T01:38:34;22.50;51.00
69895;DHT22;57172;52.034;5.090;2022-08-14T01:41:12;22.40;51.10
69895;DHT22;57172;52.034;5.090;2022-08-14T01:43:51;22.40;51.60
69895;DHT22;57172;52.034;5.090;2022-08-14T01:46:23;22.40;51.50
69895;DHT22;57172;52.034;5.090;2022-08-14T01:49:01;22.30;51.40
69895;DHT22;57172;52.034;5.090;2022-08-14T01:51:33;22.30;51.70
69895;DHT22;57172;52.034;5.090;2022-08-14T01:54:11;22.20;51.70
69895;DHT22;57172;52.034;5.090;2022-08-14T01:56:40;22.20;52.00
69895;DHT22;57172;52.034;5.090;2022-08-14T02:01:45;22.10;52.30
69895;DHT22;57172;52.034;5.090;2022-08-14T02:04:28;22.10;52.40
69895;DHT22;57172;52.034;5.090;2022-08-14T02:07:17;22.00;52.40
69895;DHT22;57172;52.034;5.090;2022-08-14T02:10:05;22.00;52.40
69895;DHT22;57172;52.034;5.090;2022-08-14T02:12:32;22.00;52.60
69895;DHT22;57172;52.034;5.090;2022-08-14T02:15:00;21.90;53.00
69895;DHT22;57172;52.034;5.090;2022-08-14T02:17:28;21.90;53.10
69895;DHT22;57172;52.034;5.090;2022-08-14T02:19:56;21.90;53.30
69895;DHT22;57172;52.034;5.090;2022-08-14T02:22:25;21.80;53.50
69895;DHT22;57172;52.034;5.090;2022-08-14T02:24:58;21.80;53.70
69895;DHT22;57172;52.034;5.090;2022-08-14T02:27:25;21.70;53.80
69895;DHT22;57172;52.034;5.090;2022-08-14T02:30:14;21.70;53.90
69895;DHT22;57172;52.034;5.090;2022-08-14T02:32:42;21.60;53.90
69895;DHT22;57172;52.034;5.090;2022-08-14T02:35:10;21.60;54.10
69895;DHT22;57172;52.034;5.090;2022-08-14T02:37:48;21.60;54.20
69895;DHT22;57172;52.034;5.090;2022-08-14T02:40:17;21.50;54.50
69895;DHT22;57172;52.034;5.090;2022-08-14T02:42:45;21.50;54.50
69895;DHT22;57172;52.034;5.090;2022-08-14T02:45:26;21.50;54.70
69895;DHT22;57172;52.034;5.090;2022-08-14T02:48:11;21.50;54.70
69895;DHT22;57172;52.034;5.090;2022-08-14T02:50:59;21.40;54.70
69895;DHT22;57172;52.034;5.090;2022-08-14T02:53:30;21.40;54.90
69895;DHT22;57172;52.034;5.090;2022-08-14T02:55:59;21.40;55.10
69895;DHT22;57172;52.034;5.090;2022-08-14T02:58:49;21.30;55.30
69895;DHT22;57172;52.034;5.090;2022-08-14T03:01:20;21.30;55.50
69895;DHT22;57172;52.034;5.090;2022-08-14T03:03:51;21.20;55.60
69895;DHT22;57172;52.034;5.090;2022-08-14T03:06:19;21.20;55.60
69895;DHT22;57172;52.034;5.090;2022-08-14T03:09:09;21.20;55.70
69895;DHT22;57172;52.034;5.090;2022-08-14T03:11:37;21.20;55.90
69895;DHT22;57172;52.034;5.090;2022-08-14T03:14:11;21.20;56.00
69895;DHT22;57172;52.034;5.090;2022-08-14T03:16:41;21.10;56.20
69895;DHT22;57172;52.034;5.090;2022-08-14T03:19:09;21.10;56.30
69895;DHT22;57172;52.034;5.090;2022-08-14T03:21:37;21.10;56.40
69895;DHT22;57172;52.034;5.090;2022-08-14T03:24:06;21.10;56.40
69895;DHT22;57172;52.034;5.090;2022-08-14T03:26:48;21.10;56.60
69895;DHT22;57172;52.034;5.090;2022-08-14T03:29:23;21.00;56.70
69895;DHT22;57172;52.034;5.090;2022-08-14T03:31:52;21.00;56.90
69895;DHT22;57172;52.034;5.090;2022-08-14T03:34:19;20.90;57.10
69895;DHT22;57172;52.034;5.090;2022-08-14T03:37:08;20.90;57.20
69895;DHT22;57172;52.034;5.090;2022-08-14T03:39:57;20.90;57.20
69895;DHT22;57172;52.034;5.090;2022-08-14T03:42:26;20.90;57.30
69895;DHT22;57172;52.034;5.090;2022-08-14T03:45:03;20.80;57.40
69895;DHT22;57172;52.034;5.090;2022-08-14T03:47:51;20.80;57.60
69895;DHT22;57172;52.034;5.090;2022-08-14T03:50:27;20.80;57.60
69895;DHT22;57172;52.034;5.090;2022-08-14T03:52:59;20.80;57.70
69895;DHT22;57172;52.034;5.090;2022-08-14T03:55:27;20.80;57.80
69895;DHT22;57172;52.034;5.090;2022-08-14T03:57:56;20.70;58.00
69895;DHT22;57172;52.034;5.090;2022-08-14T04:00:26;20.70;58.10
69895;DHT22;57172;52.034;5.090;2022-08-14T04:03:10;20.70;58.30
69895;DHT22;57172;52.034;5.090;2022-08-14T04:05:45;20.70;58.30
69895;DHT22;57172;52.034;5.090;2022-08-14T04:08:15;20.70;58.50
69895;DHT22;57172;52.034;5.090;2022-08-14T04:10:59;20.70;58.60
69895;DHT22;57172;52.034;5.090;2022-08-14T04:13:33;20.60;58.70
69895;DHT22;57172;52.034;5.090;2022-08-14T04:16:06;20.60;58.80
69895;DHT22;57172;52.034;5.090;2022-08-14T04:18:43;20.60;58.80
69895;DHT22;57172;52.034;5.090;2022-08-14T04:21:12;20.60;59.00
69895;DHT22;57172;52.034;5.090;2022-08-14T04:23:42;20.60;59.00
69895;DHT22;57172;52.034;5.090;2022-08-14T04:26:12;20.60;59.00
69895;DHT22;57172;52.034;5.090;2022-08-14T04:28:42;20.60;59.10
69895;DHT22;57172;52.034;5.090;2022-08-14T04:31:29;20.60;59.10
69895;DHT22;57172;52.034;5.090;2022-08-14T04:34:16;20.60;59.20
69895;DHT22;57172;52.034;5.090;2022-08-14T04:36:53;20.60;59.40
69895;DHT22;57172;52.034;5.090;2022-08-14T04:39:38;20.60;59.40
69895;DHT22;57172;52.034;5.090;2022-08-14T04:42:25;20.60;59.40
69895;DHT22;57172;52.034;5.090;2022-08-14T04:45:21;20.60;59.40
69895;DHT22;57172;52.034;5.090;2022-08-14T04:47:50;20.60;59.40
69895;DHT22;57172;52.034;5.090;2022-08-14T04:50:49;20.60;59.60
69895;DHT22;57172;52.034;5.090;2022-08-14T04:53:29;20.60;59.80
69895;DHT22;57172;52.034;5.090;2022-08-14T04:56:03;20.60;59.80
69895;DHT22;57172;52.034;5.090;2022-08-14T04:58:36;20.60;59.70
69895;DHT22;57172;52.034;5.090;2022-08-14T05:01:06;20.70;59.80
69895;DHT22;57172;52.034;5.090;2022-08-14T05:03:45;20.70;59.90
69895;DHT22;57172;52.034;5.090;2022-08-14T05:06:12;20.70;59.90
69895;DHT22;57172;52.034;5.090;2022-08-14T05:08:59;20.70;59.90
69895;DHT22;57172;52.034;5.090;2022-08-14T05:11:26;20.70;59.80
69895;DHT22;57172;52.034;5.090;2022-08-14T05:13:53;20.80;59.90
69895;DHT22;57172;52.034;5.090;2022-08-14T05:16:42;20.80;59.80
69895;DHT22;57172;52.034;5.090;2022-08-14T05:19:13;20.80;59.80
69895;DHT22;57172;52.034;5.090;2022-08-14T05:21:50;20.80;59.70
69895;DHT22;57172;52.034;5.090;2022-08-14T05:24:24;20.90;59.60
69895;DHT22;57172;52.034;5.090;2022-08-14T05:26:51;20.90;59.60
69895;DHT22;57172;52.034;5.090;2022-08-14T05:29:19;21.00;59.60
69895;DHT22;57172;52.034;5.090;2022-08-14T05:31:46;21.00;59.60
69895;DHT22;57172;52.034;5.090;2022-08-14T05:34:13;21.00;59.70
69895;DHT22;57172;52.034;5.090;2022-08-14T05:36:41;21.10;59.60
69895;DHT22;57172;52.034;5.090;2022-08-14T05:39:16;21.10;59.60
69895;DHT22;57172;52.034;5.090;2022-08-14T05:41:43;21.10;59.50
69895;DHT22;57172;52.034;5.090;2022-08-14T05:44:19;21.20;59.50
69895;DHT22;57172;52.034;5.090;2022-08-14T05:46:47;21.20;59.40
69895;DHT22;57172;52.034;5.090;2022-08-14T05:49:15;21.30;59.30
69895;DHT22;57172;52.034;5.090;2022-08-14T05:51:42;21.30;59.30
69895;DHT22;57172;52.034;5.090;2022-08-14T05:54:12;21.30;59.30
69895;DHT22;57172;52.034;5.090;2022-08-14T05:56:53;21.40;59.30
69895;DHT22;57172;52.034;5.090;2022-08-14T05:59:20;21.40;59.20
69895;DHT22;57172;52.034;5.090;2022-08-14T06:02:06;21.50;59.20
69895;DHT22;57172;52.034;5.090;2022-08-14T06:04:36;21.60;59.10
69895;DHT22;57172;52.034;5.090;2022-08-14T06:07:02;21.70;59.00
69895;DHT22;57172;52.034;5.090;2022-08-14T06:09:30;21.70;59.00
69895;DHT22;57172;52.034;5.090;2022-08-14T06:12:08;21.80;58.90
69895;DHT22;57172;52.034;5.090;2022-08-14T06:14:36;21.90;58.80
69895;DHT22;57172;52.034;5.090;2022-08-14T06:17:05;21.90;58.70
69895;DHT22;57172;52.034;5.090;2022-08-14T06:19:31;22.00;58.50
69895;DHT22;57172;52.034;5.090;2022-08-14T06:21:58;22.00;58.50
69895;DHT22;57172;52.034;5.090;2022-08-14T06:24:26;22.10;58.40
69895;DHT22;57172;52.034;5.090;2022-08-14T06:27:01;22.20;58.20
69895;DHT22;57172;52.034;5.090;2022-08-14T06:29:32;22.30;58.10
69895;DHT22;57172;52.034;5.090;2022-08-14T06:32:01;22.30;58.00
69895;DHT22;57172;52.034;5.090;2022-08-14T06:34:49;22.40;57.90
69895;DHT22;57172;52.034;5.090;2022-08-14T06:37:44;22.50;57.80
69895;DHT22;57172;52.034;5.090;2022-08-14T06:40:18;22.60;57.70
69895;DHT22;57172;52.034;5.090;2022-08-14T06:42:59;22.60;57.50
69895;DHT22;57172;52.034;5.090;2022-08-14T06:45:33;22.70;57.50
69895;DHT22;57172;52.034;5.090;2022-08-14T06:48:02;22.80;57.40
69895;DHT22;57172;52.034;5.090;2022-08-14T06:50:38;22.90;57.50
69895;DHT22;57172;52.034;5.090;2022-08-14T06:53:05;22.90;57.30
69895;DHT22;57172;52.034;5.090;2022-08-14T06:55:33;23.00;57.20
69895;DHT22;57172;52.034;5.090;2022-08-14T06:58:03;23.10;57.20
69895;DHT22;57172;52.034;5.090;2022-08-14T07:00:31;23.20;57.10
69895;DHT22;57172;52.034;5.090;2022-08-14T07:02:58;23.30;57.10
69895;DHT22;57172;52.034;5.090;2022-08-14T07:05:47;23.40;57.10
69895;DHT22;57172;52.034;5.090;2022-08-14T07:08:29;23.50;57.10
69895;DHT22;57172;52.034;5.090;2022-08-14T07:11:01;23.60;56.70
69895;DHT22;57172;52.034;5.090;2022-08-14T07:13:31;23.70;56.70
69895;DHT22;57172;52.034;5.090;2022-08-14T07:15:58;23.80;56.50
69895;DHT22;57172;52.034;5.090;2022-08-14T07:18:32;23.90;56.40
69895;DHT22;57172;52.034;5.090;2022-08-14T07:21:01;24.00;56.30
69895;DHT22;57172;52.034;5.090;2022-08-14T07:23:28;24.00;56.10
69895;DHT22;57172;52.034;5.090;2022-08-14T07:25:57;24.20;55.90
69895;DHT22;57172;52.034;5.090;2022-08-14T07:28:29;24.20;55.60
69895;DHT22;57172;52.034;5.090;2022-08-14T07:30:59;24.30;55.20
69895;DHT22;57172;52.034;5.090;2022-08-14T07:33:35;24.40;55.00
69895;DHT22;57172;52.034;5.090;2022-08-14T07:36:06;24.50;54.90
69895;DHT22;57172;52.034;5.090;2022-08-14T07:38:52;24.50;54.60
69895;DHT22;57172;52.034;5.090;2022-08-14T07:41:19;24.60;54.40
69895;DHT22;57172;52.034;5.090;2022-08-14T07:43:47;24.70;54.20
69895;DHT22;57172;52.034;5.090;2022-08-14T07:46:23;24.80;54.10
69895;DHT22;57172;52.034;5.090;2022-08-14T07:48:55;24.90;54.00
69895;DHT22;57172;52.034;5.090;2022-08-14T07:51:22;25.00;53.90
69895;DHT22;57172;52.034;5.090;2022-08-14T07:53:51;25.10;53.90
69895;DHT22;57172;52.034;5.090;2022-08-14T07:56:23;25.20;53.70
69895;DHT22;57172;52.034;5.090;2022-08-14T07:59:10;25.30;53.60
69895;DHT22;57172;52.034;5.090;2022-08-14T08:01:39;25.40;53.50
69895;DHT22;57172;52.034;5.090;2022-08-14T08:04:22;25.60;53.50
69895;DHT22;57172;52.034;5.090;2022-08-14T08:06:53;25.80;53.10
69895;DHT22;57172;52.034;5.090;2022-08-14T08:09:25;25.90;52.80
69895;DHT22;57172;52.034;5.090;2022-08-14T08:11:59;26.00;52.50
69895;DHT22;57172;52.034;5.090;2022-08-14T08:14:33;26.10;52.20
69895;DHT22;57172;52.034;5.090;2022-08-14T08:17:22;26.30;51.60
69895;DHT22;57172;52.034;5.090;2022-08-14T08:19:49;26.50;51.60
69895;DHT22;57172;52.034;5.090;2022-08-14T08:22:17;26.90;51.40
69895;DHT22;57172;52.034;5.090;2022-08-14T08:24:45;27.40;50.40
69895;DHT22;57172;52.034;5.090;2022-08-14T08:27:17;27.90;49.90
69895;DHT22;57172;52.034;5.090;2022-08-14T08:29:47;28.40;48.50
69895;DHT22;57172;52.034;5.090;2022-08-14T08:32:17;28.90;47.90
69895;DHT22;57172;52.034;5.090;2022-08-14T08:34:45;29.40;47.30
69895;DHT22;57172;52.034;5.090;2022-08-14T08:37:13;29.90;46.00
69895;DHT22;57172;52.034;5.090;2022-08-14T08:39:44;30.30;45.20
69895;DHT22;57172;52.034;5.090;2022-08-14T08:42:31;30.70;44.80
69895;DHT22;57172;52.034;5.090;2022-08-14T08:45:14;31.30;44.00
69895;DHT22;57172;52.034;5.090;2022-08-14T08:47:43;31.80;42.80
69895;DHT22;57172;52.034;5.090;2022-08-14T08:50:19;32.20;41.90
69895;DHT22;57172;52.034;5.090;2022-08-14T08:53:01;32.40;41.20
69895;DHT22;57172;52.034;5.090;2022-08-14T08:55:42;32.80;40.80
69895;DHT22;57172;52.034;5.090;2022-08-14T08:58:36;33.10;39.80
69895;DHT22;57172;52.034;5.090;2022-08-14T09:01:03;33.30;39.10
69895;DHT22;57172;52.034;5.090;2022-08-14T09:03:31;33.60;38.90
69895;DHT22;57172;52.034;5.090;2022-08-14T09:06:06;33.90;38.20
69895;DHT22;57172;52.034;5.090;2022-08-14T09:08:52;34.20;38.00
69895;DHT22;57172;52.034;5.090;2022-08-14T09:11:22;34.60;37.60
69895;DHT22;57172;52.034;5.090;2022-08-14T09:13:51;34.90;37.20
69895;DHT22;57172;52.034;5.090;2022-08-14T09:16:23;35.30;35.90
69895;DHT22;57172;52.034;5.090;2022-08-14T09:18:52;35.60;35.50
69895;DHT22;57172;52.034;5.090;2022-08-14T09:21:21;35.80;35.40
69895;DHT22;57172;52.034;5.090;2022-08-14T09:23:52;36.00;35.30
69895;DHT22;57172;52.034;5.090;2022-08-14T09:26:40;36.30;35.10
69895;DHT22;57172;52.034;5.090;2022-08-14T09:29:11;36.60;34.80
69895;DHT22;57172;52.034;5.090;2022-08-14T09:31:42;37.00;34.40
69895;DHT22;57172;52.034;5.090;2022-08-14T09:37:09;37.60;33.50
69895;DHT22;57172;52.034;5.090;2022-08-14T09:40:03;37.90;32.80
69895;DHT22;57172;52.034;5.090;2022-08-14T09:45:30;38.60;32.30
69895;DHT22;57172;52.034;5.090;2022-08-14T09:48:22;39.00;32.00
69895;DHT22;57172;52.034;5.090;2022-08-14T09:50:57;39.30;31.40
69895;DHT22;57172;52.034;5.090;2022-08-14T09:53:41;39.60;30.60
69895;DHT22;57172;52.034;5.090;2022-08-14T09:56:29;39.90;29.60
69895;DHT22;57172;52.034;5.090;2022-08-14T09:59:10;40.20;29.50
69895;DHT22;57172;52.034;5.090;2022-08-14T10:01:42;40.50;29.20
69895;DHT22;57172;52.034;5.090;2022-08-14T10:04:25;40.70;29.10
69895;DHT22;57172;52.034;5.090;2022-08-14T10:07:15;41.00;28.50
69895;DHT22;57172;52.034;5.090;2022-08-14T10:09:47;41.20;28.50
69895;DHT22;57172;52.034;5.090;2022-08-14T10:12:44;41.30;28.50
69895;DHT22;57172;52.034;5.090;2022-08-14T10:15:20;41.80;27.60
69895;DHT22;57172;52.034;5.090;2022-08-14T10:17:49;42.20;27.00
69895;DHT22;57172;52.034;5.090;2022-08-14T10:20:37;42.40;26.60
69895;DHT22;57172;52.034;5.090;2022-08-14T10:23:14;42.70;26.10
69895;DHT22;57172;52.034;5.090;2022-08-14T10:26:07;42.90;26.10
69895;DHT22;57172;52.034;5.090;2022-08-14T10:28:45;43.10;25.90
69895;DHT22;57172;52.034;5.090;2022-08-14T10:31:32;43.40;25.60
69895;DHT22;57172;52.034;5.090;2022-08-14T10:34:17;43.70;25.20
69895;DHT22;57172;52.034;5.090;2022-08-14T10:36:45;43.80;24.40
69895;DHT22;57172;52.034;5.090;2022-08-14T10:39:23;44.00;24.50
69895;DHT22;57172;52.034;5.090;2022-08-14T10:42:10;44.20;24.40
69895;DHT22;57172;52.034;5.090;2022-08-14T10:44:46;44.40;24.80
69895;DHT22;57172;52.034;5.090;2022-08-14T10:47:18;44.60;24.80
69895;DHT22;57172;52.034;5.090;2022-08-14T10:50:06;44.90;24.80
69895;DHT22;57172;52.034;5.090;2022-08-14T10:52:40;45.10;24.20
69895;DHT22;57172;52.034;5.090;2022-08-14T10:55:16;45.10;24.60
69895;DHT22;57172;52.034;5.090;2022-08-14T10:57:52;45.30;24.50
69895;DHT22;57172;52.034;5.090;2022-08-14T11:00:25;45.50;23.80
69895;DHT22;57172;52.034;5.090;2022-08-14T11:03:05;45.70;23.70
69895;DHT22;57172;52.034;5.090;2022-08-14T11:05:52;45.80;23.30
69895;DHT22;57172;52.034;5.090;2022-08-14T11:08:32;45.80;23.30
69895;DHT22;57172;52.034;5.090;2022-08-14T11:11:02;45.70;23.10
69895;DHT22;57172;52.034;5.090;2022-08-14T11:13:30;45.80;23.40
69895;DHT22;57172;52.034;5.090;2022-08-14T11:15:59;46.10;22.60
69895;DHT22;57172;52.034;5.090;2022-08-14T11:18:28;46.20;22.40
69895;DHT22;57172;52.034;5.090;2022-08-14T11:21:06;46.00;22.20
69895;DHT22;57172;52.034;5.090;2022-08-14T11:23:38;45.70;23.10
69895;DHT22;57172;52.034;5.090;2022-08-14T11:26:10;45.90;22.60
69895;DHT22;57172;52.034;5.090;2022-08-14T11:28:42;45.70;23.10
69895;DHT22;57172;52.034;5.090;2022-08-14T11:31:23;45.60;22.50
69895;DHT22;57172;52.034;5.090;2022-08-14T11:33:52;45.80;22.10
69895;DHT22;57172;52.034;5.090;2022-08-14T11:36:23;46.20;22.40
69895;DHT22;57172;52.034;5.090;2022-08-14T11:39:21;46.70;22.40
69895;DHT22;57172;52.034;5.090;2022-08-14T11:42:06;47.10;21.90
69895;DHT22;57172;52.034;5.090;2022-08-14T11:44:57;47.40;21.40
69895;DHT22;57172;52.034;5.090;2022-08-14T11:47:26;47.40;20.90
69895;DHT22;57172;52.034;5.090;2022-08-14T11:50:18;47.00;21.20
69895;DHT22;57172;52.034;5.090;2022-08-14T11:53:04;46.60;22.00
69895;DHT22;57172;52.034;5.090;2022-08-14T11:55:35;46.60;22.00
69895;DHT22;57172;52.034;5.090;2022-08-14T11:58:08;46.60;22.10
69895;DHT22;57172;52.034;5.090;2022-08-14T12:00:49;46.80;21.70
69895;DHT22;57172;52.034;5.090;2022-08-14T12:03:19;47.20;21.50
69895;DHT22;57172;52.034;5.090;2022-08-14T12:06:05;47.50;21.10
69895;DHT22;57172;52.034;5.090;2022-08-14T12:08:54;47.30;20.50
69895;DHT22;57172;52.034;5.090;2022-08-14T12:11:25;46.90;20.50
69895;DHT22;57172;52.034;5.090;2022-08-14T12:14:09;46.80;20.90
69895;DHT22;57172;52.034;5.090;2022-08-14T12:17:01;46.90;21.50
69895;DHT22;57172;52.034;5.090;2022-08-14T12:19:30;47.40;20.60
69895;DHT22;57172;52.034;5.090;2022-08-14T12:22:01;47.50;20.60
69895;DHT22;57172;52.034;5.090;2022-08-14T12:24:28;47.40;20.50
69895;DHT22;57172;52.034;5.090;2022-08-14T12:27:02;47.40;20.40
69895;DHT22;57172;52.034;5.090;2022-08-14T12:29:29;47.50;20.20
69895;DHT22;57172;52.034;5.090;2022-08-14T12:32:02;47.20;20.00
69895;DHT22;57172;52.034;5.090;2022-08-14T12:34:35;47.10;19.80
69895;DHT22;57172;52.034;5.090;2022-08-14T12:37:03;47.00;19.60
69895;DHT22;57172;52.034;5.090;2022-08-14T12:39:32;47.10;20.00
69895;DHT22;57172;52.034;5.090;2022-08-14T12:42:06;47.40;19.80
69895;DHT22;57172;52.034;5.090;2022-08-14T12:44:39;48.00;19.10
69895;DHT22;57172;52.034;5.090;2022-08-14T12:47:09;48.20;18.90
69895;DHT22;57172;52.034;5.090;2022-08-14T12:49:48;48.10;18.50
69895;DHT22;57172;52.034;5.090;2022-08-14T12:52:29;47.80;19.30
69895;DHT22;57172;52.034;5.090;2022-08-14T12:55:18;47.80;19.10
69895;DHT22;57172;52.034;5.090;2022-08-14T12:57:47;48.10;18.60
69895;DHT22;57172;52.034;5.090;2022-08-14T13:00:23;48.60;18.40
69895;DHT22;57172;52.034;5.090;2022-08-14T13:02:53;49.00;18.40
69895;DHT22;57172;52.034;5.090;2022-08-14T13:05:33;49.10;18.20
69895;DHT22;57172;52.034;5.090;2022-08-14T13:08:04;48.80;18.00
69895;DHT22;57172;52.034;5.090;2022-08-14T13:10:52;48.40;18.60
69895;DHT22;57172;52.034;5.090;2022-08-14T13:13:21;48.20;19.00
69895;DHT22;57172;52.034;5.090;2022-08-14T13:15:53;48.30;18.90
69895;DHT22;57172;52.034;5.090;2022-08-14T13:18:25;48.30;18.90
69895;DHT22;57172;52.034;5.090;2022-08-14T13:20:56;48.30;19.30
69895;DHT22;57172;52.034;5.090;2022-08-14T13:23:33;48.60;19.00
69895;DHT22;57172;52.034;5.090;2022-08-14T13:26:03;48.70;18.90
69895;DHT22;57172;52.034;5.090;2022-08-14T13:28:30;48.30;18.90
69895;DHT22;57172;52.034;5.090;2022-08-14T13:31:00;47.90;19.20
69895;DHT22;57172;52.034;5.090;2022-08-14T13:33:37;47.70;19.70
69895;DHT22;57172;52.034;5.090;2022-08-14T13:36:07;47.80;19.30
69895;DHT22;57172;52.034;5.090;2022-08-14T13:38:35;47.70;19.20
69895;DHT22;57172;52.034;5.090;2022-08-14T13:41:02;47.30;19.80
69895;DHT22;57172;52.034;5.090;2022-08-14T13:43:30;47.50;19.80
69895;DHT22;57172;52.034;5.090;2022-08-14T13:46:02;47.60;19.80
69895;DHT22;57172;52.034;5.090;2022-08-14T13:48:29;47.80;19.60
69895;DHT22;57172;52.034;5.090;2022-08-14T13:51:04;47.90;19.10
69895;DHT22;57172;52.034;5.090;2022-08-14T13:53:44;47.90;19.50
69895;DHT22;57172;52.034;5.090;2022-08-14T13:56:40;48.10;19.20
69895;DHT22;57172;52.034;5.090;2022-08-14T13:59:08;47.90;18.70
69895;DHT22;57172;52.034;5.090;2022-08-14T14:01:36;47.10;19.50
69895;DHT22;57172;52.034;5.090;2022-08-14T14:04:13;46.50;20.00
69895;DHT22;57172;52.034;5.090;2022-08-14T14:06:48;45.90;20.60
69895;DHT22;57172;52.034;5.090;2022-08-14T14:09:26;45.50;21.10
69895;DHT22;57172;52.034;5.090;2022-08-14T14:12:04;45.20;21.00
69895;DHT22;57172;52.034;5.090;2022-08-14T14:14:54;44.60;21.40
69895;DHT22;57172;52.034;5.090;2022-08-14T14:17:21;44.30;21.80
69895;DHT22;57172;52.034;5.090;2022-08-14T14:19:55;44.40;22.10
69895;DHT22;57172;52.034;5.090;2022-08-14T14:22:23;44.60;21.90
69895;DHT22;57172;52.034;5.090;2022-08-14T14:25:14;44.70;22.00
69895;DHT22;57172;52.034;5.090;2022-08-14T14:27:48;45.00;21.80
69895;DHT22;57172;52.034;5.090;2022-08-14T14:30:19;45.10;21.30
69895;DHT22;57172;52.034;5.090;2022-08-14T14:33:07;45.20;21.30
69895;DHT22;57172;52.034;5.090;2022-08-14T14:35:57;44.90;21.30
69895;DHT22;57172;52.034;5.090;2022-08-14T14:38:25;44.50;21.70
69895;DHT22;57172;52.034;5.090;2022-08-14T14:40:56;44.40;21.80
69895;DHT22;57172;52.034;5.090;2022-08-14T14:43:27;44.30;21.80
69895;DHT22;57172;52.034;5.090;2022-08-14T14:45:55;44.30;22.00
69895;DHT22;57172;52.034;5.090;2022-08-14T14:48:24;44.20;22.00
69895;DHT22;57172;52.034;5.090;2022-08-14T14:50:58;44.00;22.20
69895;DHT22;57172;52.034;5.090;2022-08-14T14:53:29;43.80;22.40
69895;DHT22;57172;52.034;5.090;2022-08-14T14:56:05;43.60;22.40
69895;DHT22;57172;52.034;5.090;2022-08-14T14:58:54;43.50;22.80
69895;DHT22;57172;52.034;5.090;2022-08-14T15:01:22;43.60;22.80
69895;DHT22;57172;52.034;5.090;2022-08-14T15:03:49;43.60;22.40
69895;DHT22;57172;52.034;5.090;2022-08-14T15:06:20;43.50;22.60
69895;DHT22;57172;52.034;5.090;2022-08-14T15:08:56;43.50;22.30
69895;DHT22;57172;52.034;5.090;2022-08-14T15:11:26;43.50;22.20
69895;DHT22;57172;52.034;5.090;2022-08-14T15:13:56;43.10;22.50
69895;DHT22;57172;52.034;5.090;2022-08-14T15:16:23;42.90;22.80
69895;DHT22;57172;52.034;5.090;2022-08-14T15:18:50;42.40;23.10
69895;DHT22;57172;52.034;5.090;2022-08-14T15:21:18;42.10;23.40
69895;DHT22;57172;52.034;5.090;2022-08-14T15:23:45;41.80;23.50
69895;DHT22;57172;52.034;5.090;2022-08-14T15:26:17;41.80;23.90
69895;DHT22;57172;52.034;5.090;2022-08-14T15:28:58;41.80;24.00
69895;DHT22;57172;52.034;5.090;2022-08-14T15:31:28;42.00;23.70
69895;DHT22;57172;52.034;5.090;2022-08-14T15:33:55;42.10;23.80
69895;DHT22;57172;52.034;5.090;2022-08-14T15:36:57;42.00;24.00
69895;DHT22;57172;52.034;5.090;2022-08-14T15:39:24;41.90;24.10
69895;DHT22;57172;52.034;5.090;2022-08-14T15:42:00;41.70;24.20
69895;DHT22;57172;52.034;5.090;2022-08-14T15:44:28;41.50;24.40
69895;DHT22;57172;52.034;5.090;2022-08-14T15:47:03;41.30;24.50
69895;DHT22;57172;52.034;5.090;2022-08-14T15:49:34;41.20;24.60
69895;DHT22;57172;52.034;5.090;2022-08-14T15:52:05;41.00;24.80
69895;DHT22;57172;52.034;5.090;2022-08-14T15:54:33;40.90;25.00
69895;DHT22;57172;52.034;5.090;2022-08-14T15:57:04;40.70;25.10
69895;DHT22;57172;52.034;5.090;2022-08-14T15:59:35;40.50;24.80
69895;DHT22;57172;52.034;5.090;2022-08-14T16:02:22;40.30;25.00
69895;DHT22;57172;52.034;5.090;2022-08-14T16:04:54;40.10;25.20
69895;DHT22;57172;52.034;5.090;2022-08-14T16:07:21;39.90;25.40
69895;DHT22;57172;52.034;5.090;2022-08-14T16:09:53;39.80;25.90
69895;DHT22;57172;52.034;5.090;2022-08-14T16:12:40;39.60;26.10
69895;DHT22;57172;52.034;5.090;2022-08-14T16:15:20;39.50;26.20
69895;DHT22;57172;52.034;5.090;2022-08-14T16:17:50;39.50;26.20
69895;DHT22;57172;52.034;5.090;2022-08-14T16:20:18;39.60;26.40
69895;DHT22;57172;52.034;5.090;2022-08-14T16:23:06;39.80;26.40
69895;DHT22;57172;52.034;5.090;2022-08-14T16:25:39;40.00;26.20
69895;DHT22;57172;52.034;5.090;2022-08-14T16:28:08;40.20;25.80